Borkum Airport

EDWR · Bassa Sassonia, Germania

2 ottobre 2022

Tempo Codice Tempo metereologico Temp. Vista Base nuvolosa Vento METAR/SPECI
00:50
V
12 °C 10 km+ 3.500 ft 250° 250° 15 kt METAR EDWE 012250Z AUTO 25015KT 9999 // FEW014/// BKN035/// OVC140/// 12/10 Q1009
00:20
V
12 °C 10 km+ - 220° 220° 7 kt METAR EDWE 012220Z AUTO 22007KT 9999 // FEW074/// SCT170/// 12/10 Q1009

1 ottobre 2022

Tempo Codice Tempo metereologico Temp. Vista Base nuvolosa Vento METAR/SPECI
23:50
V
12 °C 10 km+ 15.000 ft 230° 230° 9 kt METAR EDWE 012150Z AUTO 23009KT 9999 // FEW030/// SCT078/// BKN150/// 12/10 Q1009
23:20
V
12 °C 10 km+ - 210° 210° 5 kt METAR EDWE 012120Z AUTO 21005KT 9999 // FEW083/// 12/10 Q1008
22:50
V
12 °C 10 km+ 6.800 ft 240° 240° 8 kt METAR EDWE 012050Z AUTO 24008KT 9999 // FEW032/// SCT046/// BKN068/// 12/10 Q1008
22:20
V
12 °C 10 km+ 6.900 ft 250° 250° 11 kt METAR EDWE 012020Z AUTO 25011KT 9999 // BKN069/// 12/10 Q1008
21:50
V
12 °C 10 km+ 8.200 ft 240° 240° 8 kt METAR EDWE 011950Z AUTO 24008KT 9999 // FEW028/// SCT040/// BKN082/// 12/10 Q1008
21:20
V
12 °C 10 km+ 7.900 ft 240° 240° 8 kt METAR EDWE 011920Z AUTO 24008KT 9999 // FEW038/// SCT049/// BKN079/// 12/10 Q1007
20:50
V
12 °C 10 km+ 8.600 ft 250° 250° 9 kt METAR EDWE 011850Z AUTO 25009KT 9999 // FEW019/// SCT064/// BKN086/// 12/11 Q1007
07:50
I
12 °C 10 km+ 900 ft 200° 200° 13 kt METAR EDWE 010550Z AUTO 20013KT 180V240 9999 // OVC009/// 12/10 Q0997
07:20
I
11 °C 10 km+ 800 ft 200° 200° 14 kt METAR EDWE 010520Z AUTO 20014KT 160V220 9999 // OVC008/// 11/10 Q0997
06:50
I
11 °C 6 km 700 ft 200° 200° 12 - 22 kt METAR EDWE 010450Z AUTO 20012G22KT 160V220 6000 // OVC007/// 11/10 Q0997
06:20
I
11 °C 7 km 600 ft 180° 180° 12 kt METAR EDWE 010420Z AUTO 18012KT 160V220 7000 // OVC006/// 11/10 Q0997
05:50
I
11 °C 5 km 800 ft 180° 180° 11 kt METAR EDWE 010350Z AUTO 18011KT 140V200 5000 // BKN008/// OVC012/// 11/10 Q0998
05:20
I
11 °C 6 km 900 ft 180° 180° 12 kt METAR EDWE 010320Z AUTO 18012KT 150V210 6000 // BKN009/// OVC011/// 11/10 Q0998
04:50
M
11 °C 8 km 1.000 ft 180° 180° 10 kt METAR EDWE 010250Z AUTO 18010KT 140V200 8000 // BKN010/// OVC016/// 11/10 Q0999
04:20
M
11 °C 10 km+ 1.300 ft 180° 180° 11 kt METAR EDWE 010220Z AUTO 18011KT 150V210 9999 // OVC013/// 11/10 Q1000
03:50
V
11 °C 10 km+ 5.000 ft 170° 170° 11 kt METAR EDWE 010150Z AUTO 17011KT 9999 // SCT016/// BKN050/// OVC069/// 11/09 Q1000
03:20
V
11 °C 10 km+ 6.500 ft 170° 170° 11 kt METAR EDWE 010120Z AUTO 17011KT 140V210 9999 // OVC065/// 11/09 Q1001
02:50
V
11 °C 10 km+ 6.400 ft 180° 180° 11 - 23 kt METAR EDWE 010050Z AUTO 18011G23KT 150V220 9999 // OVC064/// 11/09 Q1001
02:20
V
12 °C 10 km+ 6.900 ft 190° 190° 13 kt METAR EDWE 010020Z AUTO 19013KT 150V220 9999 // FEW056/// OVC069/// 12/09 Q1002
01:50
V
12 °C 10 km+ 5.700 ft 190° 190° 10 kt METAR EDWE 302350Z AUTO 19010KT 150V230 9999 // OVC057/// 12/09 Q1003
01:20
V
12 °C 10 km+ 5.900 ft 190° 190° 10 kt METAR EDWE 302320Z AUTO 19010KT 160V220 9999 // BKN059/// OVC072/// 12/09 Q1003
00:50
V
13 °C 10 km+ 6.800 ft 180° 180° 10 kt METAR EDWE 302250Z AUTO 18010KT 150V210 9999 // OVC068/// 13/08 Q1003
00:20
V
13 °C 10 km+ 8.100 ft 180° 180° 12 kt METAR EDWE 302220Z AUTO 18012KT 9999 // FEW062/// BKN081/// OVC130/// 13/08 Q1003

30 settembre 2022

Tempo Codice Tempo metereologico Temp. Vista Base nuvolosa Vento METAR/SPECI
23:50
V
13 °C 10 km+ 6.400 ft 180° 180° 11 - 21 kt METAR EDWE 302150Z AUTO 18011G21KT 140V200 9999 // BKN064/// OVC170/// 13/08 Q1004
23:20
V
13 °C 10 km+ 19.000 ft 170° 170° 11 kt METAR EDWE 302120Z AUTO 17011KT 140V210 9999 // OVC190/// 13/08 Q1004
22:50
V
12 °C 10 km+ 20.000 ft 170° 170° 10 kt METAR EDWE 302050Z AUTO 17010KT 9999 // BKN200/// OVC230/// 12/08 Q1004
22:20
V
12 °C 10 km+ 23.000 ft 170° 170° 9 kt METAR EDWE 302020Z AUTO 17009KT 140V200 9999 // BKN230/// 12/08 Q1005
21:50
V
12 °C 10 km+ - 170° 170° 9 kt METAR EDWE 301950Z AUTO 17009KT 140V200 9999 // NCD 12/08 Q1005
21:20
V
12 °C 10 km+ - 170° 170° 8 kt METAR EDWE 301920Z AUTO 17008KT 140V200 9999 // NCD 12/08 Q1005
20:50
V
13 °C 10 km+ - 180° 180° 10 kt METAR EDWE 301850Z AUTO 18010KT 150V210 9999 // FEW250/// 13/08 Q1006
14:50
V
16 °C 10 km+ - 200° 200° 11 kt METAR EDWE 301250Z 20011KT 160V230 9999 FEW040 16/08 Q1008
11:50
V
13 °C 10 km+ - 200° 200° 7 kt METAR EDWE 300950Z 20007KT 160V230 CAVOK 13/09 Q1008
11:20
V
13 °C 10 km+ - 190° 190° 6 kt METAR EDWE 300920Z 19006KT 160V230 CAVOK 13/09 Q1008
10:50
V
12 °C 10 km+ - 210° 210° 5 kt METAR EDWE 300850Z 21005KT 170V240 CAVOK 12/09 Q1008
10:20
V
11 °C 10 km+ - 190° 190° 5 kt METAR EDWE 300820Z 19005KT 160V220 CAVOK 11/09 Q1008
09:50
V
10 °C 10 km+ - 200° 200° 5 kt METAR EDWE 300750Z 20005KT 160V250 CAVOK 10/08 Q1008
09:20
V
10 °C 10 km+ - 200° 200° 5 kt METAR EDWE 300720Z 20005KT 170V240 CAVOK 10/08 Q1008
08:50
V
10 °C 10 km+ - 210° 210° 4 kt METAR EDWE 300650Z 21004KT CAVOK 10/09 Q1008
07:50
L
6 °C 350 m - Var Var 2 kt METAR EDWE 300550Z VRB02KT 0350 R25/0650U FG NSC 06/06 Q1008
07:20
I
6 °C 1,5 km - Var Var 1 kt METAR EDWE 300520Z VRB01KT 1500 BR NSC 06/06 Q1008
06:50
I
7 °C 1,8 km - 140° 140° 3 kt METAR EDWE 300450Z 14003KT 1800 BR NSC 07/06 Q1008
06:20
V
7 °C 10 km+ - 250° 250° 4 kt METAR EDWE 300420Z 25004KT CAVOK 07/06 Q1007
05:50
V
8 °C 10 km+ - 250° 250° 6 kt METAR EDWE 300350Z AUTO 25006KT 9999 // FEW071/// 08/07 Q1007
05:20
V
7 °C 10 km+ 7.100 ft 230° 230° 5 kt METAR EDWE 300320Z AUTO 23005KT 9999 // BKN071/// 07/07 Q1007
04:50
V
7 °C 10 km+ 7.300 ft 220° 220° 3 kt METAR EDWE 300250Z AUTO 22003KT 9999 // BKN073/// 07/06 Q1007
04:20
V
8 °C 10 km+ - 230° 230° 3 kt METAR EDWE 300220Z AUTO 23003KT 9999 // FEW076/// 08/07 Q1007
03:50
V
8 °C 10 km+ - 290° 290° 3 kt METAR EDWE 300150Z AUTO 29003KT 9999 // NCD 08/07 Q1007
03:20
V
7 °C 10 km+ - 280° 280° 3 kt METAR EDWE 300120Z AUTO 28003KT 9999 // FEW070/// 07/06 Q1007
02:50
V
8 °C 10 km+ 7.300 ft 280° 280° 3 kt METAR EDWE 300050Z AUTO 28003KT 260V340 9999 // SCT060/// OVC073/// 08/07 Q1006
02:20
V
9 °C 10 km+ 7.100 ft 270° 270° 5 kt METAR EDWE 300020Z AUTO 27005KT 9999 // BKN071/// 09/08 Q1006
01:50
V
9 °C 10 km+ 7.200 ft 240° 240° 4 kt METAR EDWE 292350Z AUTO 24004KT 9999 // BKN072/// BKN100/// 09/08 Q1006
01:20
V
9 °C 10 km+ 6.900 ft Var Var 2 kt METAR EDWE 292320Z AUTO VRB02KT 9999 // SCT057/// OVC069/// 09/08 Q1006
00:50
V
9 °C 10 km+ 5.300 ft 280° 280° 4 kt METAR EDWE 292250Z AUTO 28004KT 250V320 9999 // FEW046/// BKN053/// OVC067/// 09/08 Q1007
00:20
V
9 °C 10 km+ - 240° 240° 3 kt METAR EDWE 292220Z AUTO 24003KT 9999 // FEW018/// SCT038/// 09/08 Q1006

29 settembre 2022

Tempo Codice Tempo metereologico Temp. Vista Base nuvolosa Vento METAR/SPECI
23:50
V
8 °C 10 km+ - 300° 300° 3 kt METAR EDWE 292150Z AUTO 30003KT 260V030 9999 // FEW018/// SCT028/// 08/07 Q1006
23:20
V
10 °C 10 km+ 6.800 ft 270° 270° 4 kt METAR EDWE 292120Z AUTO 27004KT 9999 // BKN068/// 10/08 Q1006
22:50
V
10 °C 10 km+ 6.500 ft 240° 240° 5 kt METAR EDWE 292050Z AUTO 24005KT 210V270 9999 // FEW035/// OVC065/// 10/09 Q1006
22:20
V
9 °C 10 km+ 4.700 ft 270° 270° 3 kt METAR EDWE 292020Z AUTO 27003KT 9999 // FEW029/// BKN047/// 09/08 Q1006
21:50
V
10 °C 10 km+ - 260° 260° 3 kt METAR EDWE 291950Z AUTO 26003KT 9999 // SCT035/// SCT051/// 10/09 Q1005
21:20
V
11 °C 10 km+ 6.800 ft 250° 250° 4 kt METAR EDWE 291920Z AUTO 25004KT 9999 // BKN068/// 11/09 Q1005
20:50
V
11 °C 10 km+ 6.800 ft 240° 240° 4 kt METAR EDWE 291850Z AUTO 24004KT 9999 // FEW029/// OVC068/// 11/09 Q1005
Dati più vecchi

Noi e le terze parti seguiamo il tuo comportamento in internet sul nostro sito web con i cookie. Se continui, riteniamo che tu sia d'accordo con la nostra politica sui cookie. Per saperne di più